sensor_id;sensor_type;location;lat;lon;timestamp;pressure;altitude;pressure_sealevel;temperature;humidity
75460;BME280;64039;53.060;9.342;2023-09-12T00:01:08;100937.78;;;19.39;100.00
75460;BME280;64039;53.060;9.342;2023-09-12T00:03:34;100937.78;;;19.39;100.00
75460;BME280;64039;53.060;9.342;2023-09-12T00:06:01;100930.72;;;19.41;100.00
75460;BME280;64039;53.060;9.342;2023-09-12T00:08:27;100920.09;;;19.46;100.00
75460;BME280;64039;53.060;9.342;2023-09-12T00:11:05;100917.28;;;19.58;100.00
75460;BME280;64039;53.060;9.342;2023-09-12T00:13:32;100922.56;;;19.58;100.00
75460;BME280;64039;53.060;9.342;2023-09-12T00:15:57;100913.03;;;19.48;100.00
75460;BME280;64039;53.060;9.342;2023-09-12T00:18:23;100908.59;;;19.52;100.00
75460;BME280;64039;53.060;9.342;2023-09-12T00:20:50;100895.16;;;19.67;100.00
75460;BME280;64039;53.060;9.342;2023-09-12T00:23:16;100886.16;;;19.77;100.00
75460;BME280;64039;53.060;9.342;2023-09-12T00:25:41;100880.06;;;19.74;100.00
75460;BME280;64039;53.060;9.342;2023-09-12T00:28:07;100875.69;;;19.73;100.00
75460;BME280;64039;53.060;9.342;2023-09-12T00:30:32;100858.88;;;19.80;100.00
75460;BME280;64039;53.060;9.342;2023-09-12T00:32:58;100850.94;;;19.80;100.00
75460;BME280;64039;53.060;9.342;2023-09-12T00:35:23;100841.19;;;19.85;100.00
75460;BME280;64039;53.060;9.342;2023-09-12T00:37:48;100821.78;;;19.88;100.00
75460;BME280;64039;53.060;9.342;2023-09-12T00:40:14;100813.88;;;19.86;100.00
75460;BME280;64039;53.060;9.342;2023-09-12T00:42:39;100807.88;;;19.75;100.00
75460;BME280;64039;53.060;9.342;2023-09-12T00:45:06;100807.84;;;19.78;100.00
75460;BME280;64039;53.060;9.342;2023-09-12T00:47:32;100797.22;;;19.79;100.00
75460;BME280;64039;53.060;9.342;2023-09-12T00:49:59;100784.06;;;19.78;100.00
75460;BME280;64039;53.060;9.342;2023-09-12T00:52:26;100770.94;;;19.73;100.00
75460;BME280;64039;53.060;9.342;2023-09-12T00:54:53;100743.63;;;19.74;100.00
75460;BME280;64039;53.060;9.342;2023-09-12T00:57:19;100745.44;;;19.72;100.00
75460;BME280;64039;53.060;9.342;2023-09-12T00:59:47;100753.53;;;19.61;100.00
75460;BME280;64039;53.060;9.342;2023-09-12T01:02:13;100757.94;;;19.61;100.00
75460;BME280;64039;53.060;9.342;2023-09-12T01:04:39;100759.78;;;19.56;100.00
75460;BME280;64039;53.060;9.342;2023-09-12T01:07:05;100752.88;;;19.48;100.00
75460;BME280;64039;53.060;9.342;2023-09-12T01:09:31;100765.13;;;19.53;100.00
75460;BME280;64039;53.060;9.342;2023-09-12T01:11:57;100772.22;;;19.51;100.00
75460;BME280;64039;53.060;9.342;2023-09-12T01:14:23;100774.13;;;19.41;100.00
75460;BME280;64039;53.060;9.342;2023-09-12T01:16:49;100790.91;;;19.35;100.00
75460;BME280;64039;53.060;9.342;2023-09-12T01:19:15;100804.97;;;19.39;100.00
75460;BME280;64039;53.060;9.342;2023-09-12T01:25:16;100849.94;;;19.31;100.00
75460;BME280;64039;53.060;9.342;2023-09-12T01:27:51;100839.56;;;19.17;100.00
75460;BME280;64039;53.060;9.342;2023-09-12T01:30:20;100840.44;;;19.19;100.00
75460;BME280;64039;53.060;9.342;2023-09-12T01:32:46;100857.00;;;19.29;100.00
75460;BME280;64039;53.060;9.342;2023-09-12T01:35:14;100880.75;;;19.30;100.00
75460;BME280;64039;53.060;9.342;2023-09-12T01:37:39;100895.06;;;19.11;100.00
75460;BME280;64039;53.060;9.342;2023-09-12T01:40:06;100894.25;;;19.04;100.00
75460;BME280;64039;53.060;9.342;2023-09-12T01:42:46;100885.44;;;19.07;100.00
75460;BME280;64039;53.060;9.342;2023-09-12T01:45:17;100885.50;;;19.02;100.00
75460;BME280;64039;53.060;9.342;2023-09-12T01:47:45;100897.84;;;18.98;100.00
75460;BME280;64039;53.060;9.342;2023-09-12T01:50:13;100897.88;;;18.97;100.00
75460;BME280;64039;53.060;9.342;2023-09-12T01:52:40;100891.78;;;18.89;100.00
75460;BME280;64039;53.060;9.342;2023-09-12T01:55:07;100901.34;;;19.00;100.00
75460;BME280;64039;53.060;9.342;2023-09-12T01:57:35;100916.25;;;19.05;100.00
75460;BME280;64039;53.060;9.342;2023-09-12T02:00:01;100910.22;;;18.92;100.00
75460;BME280;64039;53.060;9.342;2023-09-12T02:02:27;100917.19;;;18.97;100.00
75460;BME280;64039;53.060;9.342;2023-09-12T02:05:11;100899.66;;;18.92;100.00
75460;BME280;64039;53.060;9.342;2023-09-12T02:07:40;100904.03;;;18.96;100.00
75460;BME280;64039;53.060;9.342;2023-09-12T02:10:06;100904.91;;;18.98;100.00
75460;BME280;64039;53.060;9.342;2023-09-12T02:12:32;100895.34;;;18.86;100.00
75460;BME280;64039;53.060;9.342;2023-09-12T02:14:58;100889.19;;;18.87;100.00
75460;BME280;64039;53.060;9.342;2023-09-12T02:17:23;100890.88;;;18.94;100.00
75460;BME280;64039;53.060;9.342;2023-09-12T02:19:49;100898.50;;;19.17;100.00
75460;BME280;64039;53.060;9.342;2023-09-12T02:22:14;100899.53;;;19.04;100.00
75460;BME280;64039;53.060;9.342;2023-09-12T02:24:40;100890.75;;;19.04;100.00
75460;BME280;64039;53.060;9.342;2023-09-12T02:27:05;100887.25;;;19.03;100.00
75460;BME280;64039;53.060;9.342;2023-09-12T02:29:31;100885.44;;;19.08;100.00
75460;BME280;64039;53.060;9.342;2023-09-12T02:31:58;100855.56;;;19.06;100.00
75460;BME280;64039;53.060;9.342;2023-09-12T02:34:43;100849.25;;;19.16;100.00
75460;BME280;64039;53.060;9.342;2023-09-12T02:37:08;100873.81;;;19.22;100.00
75460;BME280;64039;53.060;9.342;2023-09-12T02:39:34;100889.66;;;19.19;100.00
75460;BME280;64039;53.060;9.342;2023-09-12T02:41:59;100911.69;;;19.17;100.00
75460;BME280;64039;53.060;9.342;2023-09-12T02:44:25;100908.09;;;19.22;100.00
75460;BME280;64039;53.060;9.342;2023-09-12T02:46:50;100891.66;;;19.03;100.00
75460;BME280;64039;53.060;9.342;2023-09-12T02:49:16;100888.19;;;18.97;100.00
75460;BME280;64039;53.060;9.342;2023-09-12T02:51:41;100876.78;;;18.97;100.00
75460;BME280;64039;53.060;9.342;2023-09-12T02:54:07;100843.28;;;19.02;100.00
75460;BME280;64039;53.060;9.342;2023-09-12T02:56:32;100827.38;;;19.10;100.00
75460;BME280;64039;53.060;9.342;2023-09-12T02:58:58;100845.19;;;18.91;100.00
75460;BME280;64039;53.060;9.342;2023-09-12T03:01:23;100855.75;;;18.88;100.00
75460;BME280;64039;53.060;9.342;2023-09-12T03:03:53;100848.84;;;18.79;100.00
75460;BME280;64039;53.060;9.342;2023-09-12T03:06:18;100855.69;;;18.95;100.00
75460;BME280;64039;53.060;9.342;2023-09-12T03:08:44;100875.78;;;19.04;100.00
75460;BME280;64039;53.060;9.342;2023-09-12T03:11:10;100900.72;;;18.77;100.00
75460;BME280;64039;53.060;9.342;2023-09-12T03:13:40;100911.16;;;18.86;100.00
75460;BME280;64039;53.060;9.342;2023-09-12T03:16:12;100893.75;;;18.68;100.00
75460;BME280;64039;53.060;9.342;2023-09-12T03:18:39;100889.28;;;18.76;100.00
75460;BME280;64039;53.060;9.342;2023-09-12T03:21:04;100905.00;;;18.87;100.00
75460;BME280;64039;53.060;9.342;2023-09-12T03:23:30;100913.78;;;18.88;100.00
75460;BME280;64039;53.060;9.342;2023-09-12T03:26:01;100921.72;;;18.83;100.00
75460;BME280;64039;53.060;9.342;2023-09-12T03:28:27;100916.53;;;18.77;100.00
75460;BME280;64039;53.060;9.342;2023-09-12T03:31:05;100917.44;;;18.76;100.00
75460;BME280;64039;53.060;9.342;2023-09-12T03:33:31;100905.19;;;18.70;100.00
75460;BME280;64039;53.060;9.342;2023-09-12T03:35:56;100903.31;;;18.78;100.00
75460;BME280;64039;53.060;9.342;2023-09-12T03:38:22;100883.16;;;18.76;100.00
75460;BME280;64039;53.060;9.342;2023-09-12T03:40:47;100884.84;;;18.81;100.00
75460;BME280;64039;53.060;9.342;2023-09-12T03:43:12;100890.94;;;18.88;100.00
75460;BME280;64039;53.060;9.342;2023-09-12T03:45:38;100902.25;;;18.98;100.00
75460;BME280;64039;53.060;9.342;2023-09-12T03:48:04;100889.94;;;19.00;100.00
75460;BME280;64039;53.060;9.342;2023-09-12T03:50:29;100883.78;;;19.01;100.00
75460;BME280;64039;53.060;9.342;2023-09-12T03:52:55;100888.19;;;18.99;100.00
75460;BME280;64039;53.060;9.342;2023-09-12T03:55:20;100881.19;;;18.95;100.00
75460;BME280;64039;53.060;9.342;2023-09-12T03:57:45;100879.47;;;18.91;100.00
75460;BME280;64039;53.060;9.342;2023-09-12T04:00:11;100892.63;;;18.95;100.00
75460;BME280;64039;53.060;9.342;2023-09-12T04:02:37;100879.47;;;18.89;100.00
75460;BME280;64039;53.060;9.342;2023-09-12T04:05:03;100885.59;;;18.91;100.00
75460;BME280;64039;53.060;9.342;2023-09-12T04:07:29;100863.63;;;18.91;100.00
75460;BME280;64039;53.060;9.342;2023-09-12T04:09:54;100853.19;;;18.84;100.00
75460;BME280;64039;53.060;9.342;2023-09-12T04:12:20;100839.91;;;18.91;100.00
75460;BME280;64039;53.060;9.342;2023-09-12T04:14:45;100826.72;;;18.92;100.00
75460;BME280;64039;53.060;9.342;2023-09-12T04:17:11;100804.63;;;18.99;100.00
75460;BME280;64039;53.060;9.342;2023-09-12T04:19:36;100787.13;;;18.95;100.00
75460;BME280;64039;53.060;9.342;2023-09-12T04:22:01;100784.50;;;18.94;100.00
75460;BME280;64039;53.060;9.342;2023-09-12T04:24:27;100764.31;;;18.93;100.00
75460;BME280;64039;53.060;9.342;2023-09-12T04:26:53;100755.38;;;19.01;100.00
75460;BME280;64039;53.060;9.342;2023-09-12T04:29:19;100751.03;;;18.97;100.00
75460;BME280;64039;53.060;9.342;2023-09-12T04:31:44;100751.09;;;18.94;100.00
75460;BME280;64039;53.060;9.342;2023-09-12T04:34:10;100742.31;;;18.92;100.00
75460;BME280;64039;53.060;9.342;2023-09-12T04:36:35;100729.09;;;18.94;100.00
75460;BME280;64039;53.060;9.342;2023-09-12T04:39:02;100741.31;;;19.03;100.00
75460;BME280;64039;53.060;9.342;2023-09-12T04:41:30;100738.63;;;19.04;100.00
75460;BME280;64039;53.060;9.342;2023-09-12T04:43:55;100736.91;;;19.01;100.00
75460;BME280;64039;53.060;9.342;2023-09-12T04:46:22;100769.31;;;19.10;100.00
75460;BME280;64039;53.060;9.342;2023-09-12T04:48:47;100784.59;;;18.86;100.00
75460;BME280;64039;53.060;9.342;2023-09-12T04:51:13;100795.13;;;18.86;100.00
75460;BME280;64039;53.060;9.342;2023-09-12T04:53:39;100815.34;;;18.87;100.00
75460;BME280;64039;53.060;9.342;2023-09-12T04:56:05;100825.88;;;18.87;100.00
75460;BME280;64039;53.060;9.342;2023-09-12T04:58:32;100816.34;;;18.77;100.00
75460;BME280;64039;53.060;9.342;2023-09-12T05:00:57;100807.38;;;18.92;100.00
75460;BME280;64039;53.060;9.342;2023-09-12T05:03:23;100816.94;;;19.00;100.00
75460;BME280;64039;53.060;9.342;2023-09-12T05:05:49;100821.47;;;18.88;100.00
75460;BME280;64039;53.060;9.342;2023-09-12T05:08:16;100832.91;;;18.86;100.00
75460;BME280;64039;53.060;9.342;2023-09-12T05:10:43;100828.59;;;18.82;100.00
75460;BME280;64039;53.060;9.342;2023-09-12T05:13:09;100834.66;;;18.88;100.00
75460;BME280;64039;53.060;9.342;2023-09-12T05:15:34;100837.34;;;18.83;100.00
75460;BME280;64039;53.060;9.342;2023-09-12T05:18:02;100831.97;;;18.94;100.00
75460;BME280;64039;53.060;9.342;2023-09-12T05:20:27;100842.44;;;19.00;100.00
75460;BME280;64039;53.060;9.342;2023-09-12T05:22:53;100844.22;;;18.98;100.00
75460;BME280;64039;53.060;9.342;2023-09-12T05:25:18;100847.66;;;19.03;100.00
75460;BME280;64039;53.060;9.342;2023-09-12T05:27:44;100860.13;;;18.93;100.00
75460;BME280;64039;53.060;9.342;2023-09-12T05:30:09;100865.34;;;18.98;100.00
75460;BME280;64039;53.060;9.342;2023-09-12T05:32:35;100873.53;;;18.70;100.00
75460;BME280;64039;53.060;9.342;2023-09-12T05:35:02;100882.22;;;18.78;100.00
75460;BME280;64039;53.060;9.342;2023-09-12T05:37:28;100893.63;;;18.82;100.00
75460;BME280;64039;53.060;9.342;2023-09-12T05:39:54;100890.03;;;18.88;100.00
75460;BME280;64039;53.060;9.342;2023-09-12T05:42:19;100890.00;;;18.89;100.00
75460;BME280;64039;53.060;9.342;2023-09-12T05:44:49;100890.00;;;18.92;100.00
75460;BME280;64039;53.060;9.342;2023-09-12T05:47:18;100884.72;;;18.94;100.00
75460;BME280;64039;53.060;9.342;2023-09-12T05:49:43;100884.63;;;19.01;100.00
75460;BME280;64039;53.060;9.342;2023-09-12T05:52:09;100885.44;;;19.07;100.00
75460;BME280;64039;53.060;9.342;2023-09-12T05:54:34;100903.88;;;19.10;100.00
75460;BME280;64039;53.060;9.342;2023-09-12T05:57:00;100919.78;;;19.04;100.00
75460;BME280;64039;53.060;9.342;2023-09-12T05:59:25;100912.78;;;19.01;100.00
75460;BME280;64039;53.060;9.342;2023-09-12T06:01:51;100897.75;;;19.06;100.00
75460;BME280;64039;53.060;9.342;2023-09-12T06:04:17;100915.41;;;19.03;100.00
75460;BME280;64039;53.060;9.342;2023-09-12T06:06:43;100905.69;;;19.03;100.00
75460;BME280;64039;53.060;9.342;2023-09-12T06:09:08;100906.59;;;19.02;100.00
75460;BME280;64039;53.060;9.342;2023-09-12T06:11:34;100903.84;;;19.13;100.00
75460;BME280;64039;53.060;9.342;2023-09-12T06:14:00;100915.31;;;19.09;100.00
75460;BME280;64039;53.060;9.342;2023-09-12T06:16:25;100916.13;;;19.12;100.00
75460;BME280;64039;53.060;9.342;2023-09-12T06:18:51;100915.31;;;19.09;100.00
75460;BME280;64039;53.060;9.342;2023-09-12T06:21:19;100898.53;;;19.14;100.00
75460;BME280;64039;53.060;9.342;2023-09-12T06:23:47;100898.56;;;19.13;100.00
75460;BME280;64039;53.060;9.342;2023-09-12T06:26:12;100891.53;;;19.12;100.00
75460;BME280;64039;53.060;9.342;2023-09-12T06:28:38;100883.56;;;19.15;100.00
75460;BME280;64039;53.060;9.342;2023-09-12T06:31:03;100890.41;;;19.30;100.00
75460;BME280;64039;53.060;9.342;2023-09-12T06:33:29;100898.38;;;19.25;100.00
75460;BME280;64039;53.060;9.342;2023-09-12T06:35:54;100908.00;;;19.31;100.00
75460;BME280;64039;53.060;9.342;2023-09-12T06:38:22;100910.69;;;19.26;100.00
75460;BME280;64039;53.060;9.342;2023-09-12T06:40:47;100909.91;;;19.18;100.00
75460;BME280;64039;53.060;9.342;2023-09-12T06:43:13;100905.44;;;19.23;100.00
75460;BME280;64039;53.060;9.342;2023-09-12T06:45:42;100906.38;;;19.22;100.00
75460;BME280;64039;53.060;9.342;2023-09-12T06:48:08;100883.28;;;19.35;100.00
75460;BME280;64039;53.060;9.342;2023-09-12T06:50:34;100885.13;;;19.30;100.00
75460;BME280;64039;53.060;9.342;2023-09-12T06:52:59;100872.84;;;19.27;100.00
75460;BME280;64039;53.060;9.342;2023-09-12T06:55:25;100866.69;;;19.28;100.00
75460;BME280;64039;53.060;9.342;2023-09-12T06:57:50;100849.06;;;19.30;100.00
75460;BME280;64039;53.060;9.342;2023-09-12T07:00:16;100857.78;;;19.36;100.00
75460;BME280;64039;53.060;9.342;2023-09-12T07:02:42;100866.66;;;19.30;100.00
75460;BME280;64039;53.060;9.342;2023-09-12T07:05:08;100871.91;;;19.33;100.00
75460;BME280;64039;53.060;9.342;2023-09-12T07:07:33;100885.91;;;19.35;100.00
75460;BME280;64039;53.060;9.342;2023-09-12T07:09:59;100881.38;;;19.46;100.00
75460;BME280;64039;53.060;9.342;2023-09-12T07:12:26;100873.53;;;19.42;100.00
75460;BME280;64039;53.060;9.342;2023-09-12T07:14:51;100876.13;;;19.45;100.00
75460;BME280;64039;53.060;9.342;2023-09-12T07:17:17;100876.78;;;19.59;100.00
75460;BME280;64039;53.060;9.342;2023-09-12T07:19:43;100876.03;;;19.51;100.00
75460;BME280;64039;53.060;9.342;2023-09-12T07:22:08;100872.38;;;19.60;100.00
75460;BME280;64039;53.060;9.342;2023-09-12T07:24:34;100884.53;;;19.70;100.00
75460;BME280;64039;53.060;9.342;2023-09-12T07:26:59;100880.00;;;19.80;100.00
75460;BME280;64039;53.060;9.342;2023-09-12T07:29:25;100883.47;;;19.84;100.00
75460;BME280;64039;53.060;9.342;2023-09-12T07:31:54;100899.31;;;19.84;100.00
75460;BME280;64039;53.060;9.342;2023-09-12T07:34:23;100902.19;;;19.68;100.00
75460;BME280;64039;53.060;9.342;2023-09-12T07:36:49;100900.25;;;19.78;100.00
75460;BME280;64039;53.060;9.342;2023-09-12T07:39:16;100891.44;;;19.79;100.00
75460;BME280;64039;53.060;9.342;2023-09-12T07:41:42;100895.84;;;19.80;100.00
75460;BME280;64039;53.060;9.342;2023-09-12T07:44:07;100906.41;;;19.78;100.00
75460;BME280;64039;53.060;9.342;2023-09-12T07:46:36;100911.63;;;19.83;100.00
75460;BME280;64039;53.060;9.342;2023-09-12T07:49:02;100917.81;;;19.80;100.00
75460;BME280;64039;53.060;9.342;2023-09-12T07:51:27;100924.78;;;19.89;100.00
75460;BME280;64039;53.060;9.342;2023-09-12T07:53:53;100928.41;;;19.80;100.00
75460;BME280;64039;53.060;9.342;2023-09-12T07:56:18;100916.75;;;19.94;100.00
75460;BME280;64039;53.060;9.342;2023-09-12T07:58:44;100927.25;;;19.99;100.00
75460;BME280;64039;53.060;9.342;2023-09-12T08:01:09;100930.72;;;20.02;100.00
75460;BME280;64039;53.060;9.342;2023-09-12T08:03:36;100924.94;;;20.32;100.00
75460;BME280;64039;53.060;9.342;2023-09-12T08:06:02;100920.66;;;20.24;100.00
75460;BME280;64039;53.060;9.342;2023-09-12T08:08:29;100918.91;;;20.23;100.00
75460;BME280;64039;53.060;9.342;2023-09-12T08:10:54;100915.44;;;20.20;100.00
75460;BME280;64039;53.060;9.342;2023-09-12T08:13:21;100915.53;;;20.17;100.00
75460;BME280;64039;53.060;9.342;2023-09-12T08:15:47;100915.34;;;20.27;100.00
75460;BME280;64039;53.060;9.342;2023-09-12T08:18:12;100904.63;;;20.34;100.00
75460;BME280;64039;53.060;9.342;2023-09-12T08:20:38;100909.06;;;20.33;100.00
75460;BME280;64039;53.060;9.342;2023-09-12T08:23:03;100910.63;;;20.45;100.00
75460;BME280;64039;53.060;9.342;2023-09-12T08:25:29;100905.25;;;20.48;100.00
75460;BME280;64039;53.060;9.342;2023-09-12T08:27:54;100907.72;;;20.57;100.00
75460;BME280;64039;53.060;9.342;2023-09-12T08:30:20;100912.06;;;20.62;100.00
75460;BME280;64039;53.060;9.342;2023-09-12T08:32:47;100908.44;;;20.66;100.00
75460;BME280;64039;53.060;9.342;2023-09-12T08:35:13;100911.16;;;20.63;100.00
75460;BME280;64039;53.060;9.342;2023-09-12T08:37:40;100914.88;;;20.52;100.00
75460;BME280;64039;53.060;9.342;2023-09-12T08:40:07;100917.41;;;20.60;100.00
75460;BME280;64039;53.060;9.342;2023-09-12T08:42:42;100913.94;;;20.55;100.00
75460;BME280;64039;53.060;9.342;2023-09-12T08:45:13;100923.75;;;20.48;100.00
75460;BME280;64039;53.060;9.342;2023-09-12T08:47:41;100927.34;;;20.46;100.00
75460;BME280;64039;53.060;9.342;2023-09-12T08:50:10;100932.78;;;20.36;100.00
75460;BME280;64039;53.060;9.342;2023-09-12T08:52:37;100951.94;;;20.49;100.00
75460;BME280;64039;53.060;9.342;2023-09-12T08:55:03;100978.56;;;20.38;100.00
75460;BME280;64039;53.060;9.342;2023-09-12T08:57:32;100993.63;;;20.35;100.00
75460;BME280;64039;53.060;9.342;2023-09-12T09:00:00;101002.56;;;20.27;100.00
75460;BME280;64039;53.060;9.342;2023-09-12T09:02:32;100999.97;;;20.23;100.00
75460;BME280;64039;53.060;9.342;2023-09-12T09:04:59;100995.94;;;20.00;100.00
75460;BME280;64039;53.060;9.342;2023-09-12T09:07:27;100995.69;;;20.16;100.00
75460;BME280;64039;53.060;9.342;2023-09-12T09:09:54;100987.97;;;20.02;100.00
75460;BME280;64039;53.060;9.342;2023-09-12T09:12:21;100993.91;;;20.16;100.00
75460;BME280;64039;53.060;9.342;2023-09-12T09:14:46;100991.34;;;20.11;100.00
75460;BME280;64039;53.060;9.342;2023-09-12T09:17:12;100984.22;;;20.17;100.00
75460;BME280;64039;53.060;9.342;2023-09-12T09:19:41;100990.25;;;20.25;100.00
75460;BME280;64039;53.060;9.342;2023-09-12T09:22:07;100992.22;;;20.10;100.00
75460;BME280;64039;53.060;9.342;2023-09-12T09:24:33;100986.97;;;20.09;100.00
75460;BME280;64039;53.060;9.342;2023-09-12T09:26:58;100991.53;;;19.99;100.00
75460;BME280;64039;53.060;9.342;2023-09-12T09:29:26;101004.78;;;19.96;100.00
75460;BME280;64039;53.060;9.342;2023-09-12T09:31:58;101019.03;;;19.86;100.00
75460;BME280;64039;53.060;9.342;2023-09-12T09:34:25;101018.50;;;19.57;100.00
75460;BME280;64039;53.060;9.342;2023-09-12T09:36:56;101013.22;;;19.57;100.00
75460;BME280;64039;53.060;9.342;2023-09-12T09:39:23;101010.56;;;19.59;100.00
75460;BME280;64039;53.060;9.342;2023-09-12T09:41:50;101014.16;;;19.53;100.00
75460;BME280;64039;53.060;9.342;2023-09-12T09:44:16;101012.38;;;19.54;100.00
75460;BME280;64039;53.060;9.342;2023-09-12T09:46:46;101007.28;;;19.41;100.00
75460;BME280;64039;53.060;9.342;2023-09-12T09:49:15;101011.56;;;19.50;100.00
75460;BME280;64039;53.060;9.342;2023-09-12T09:51:43;101015.97;;;19.50;100.00
75460;BME280;64039;53.060;9.342;2023-09-12T09:54:10;101017.72;;;19.49;100.00
75460;BME280;64039;53.060;9.342;2023-09-12T09:56:56;101016.13;;;19.36;100.00
75460;BME280;64039;53.060;9.342;2023-09-12T09:59:24;101017.91;;;19.33;100.00
75460;BME280;64039;53.060;9.342;2023-09-12T10:01:51;101032.03;;;19.31;100.00
75460;BME280;64039;53.060;9.342;2023-09-12T10:04:23;101036.38;;;19.35;100.00
75460;BME280;64039;53.060;9.342;2023-09-12T10:06:49;101043.41;;;19.35;100.00
75460;BME280;64039;53.060;9.342;2023-09-12T10:09:16;101047.03;;;19.27;100.00
75460;BME280;64039;53.060;9.342;2023-09-12T10:11:46;101041.97;;;19.06;100.00
75460;BME280;64039;53.060;9.342;2023-09-12T10:14:15;101038.34;;;19.16;100.00
75460;BME280;64039;53.060;9.342;2023-09-12T10:16:46;101046.38;;;19.05;100.00
75460;BME280;64039;53.060;9.342;2023-09-12T10:19:22;101046.38;;;19.05;100.00
75460;BME280;64039;53.060;9.342;2023-09-12T10:24:35;101042.97;;;18.95;100.00
75460;BME280;64039;53.060;9.342;2023-09-12T10:27:01;101046.53;;;18.93;100.00
75460;BME280;64039;53.060;9.342;2023-09-12T10:29:28;101034.22;;;18.87;100.00
75460;BME280;64039;53.060;9.342;2023-09-12T10:31:54;101038.69;;;18.80;100.00
75460;BME280;64039;53.060;9.342;2023-09-12T10:34:20;101033.38;;;18.85;100.00
75460;BME280;64039;53.060;9.342;2023-09-12T10:36:47;101024.69;;;18.72;100.00
75460;BME280;64039;53.060;9.342;2023-09-12T10:39:14;101018.63;;;18.62;100.00
75460;BME280;64039;53.060;9.342;2023-09-12T10:41:40;101003.66;;;18.66;100.00
75460;BME280;64039;53.060;9.342;2023-09-12T10:44:10;100990.53;;;18.58;100.00
75460;BME280;64039;53.060;9.342;2023-09-12T10:46:40;100982.63;;;18.61;100.00
75460;BME280;64039;53.060;9.342;2023-09-12T10:49:07;100985.13;;;18.74;100.00
75460;BME280;64039;53.060;9.342;2023-09-12T10:51:37;100983.34;;;18.76;100.00
75460;BME280;64039;53.060;9.342;2023-09-12T10:54:04;100977.16;;;18.80;100.00
75460;BME280;64039;53.060;9.342;2023-09-12T10:56:29;100969.13;;;18.89;100.00
75460;BME280;64039;53.060;9.342;2023-09-12T11:01:36;100966.44;;;19.00;100.00
75460;BME280;64039;53.060;9.342;2023-09-12T11:06:55;100957.63;;;18.99;100.00
75460;BME280;64039;53.060;9.342;2023-09-12T11:09:25;100954.06;;;19.04;100.00
75460;BME280;64039;53.060;9.342;2023-09-12T11:14:22;100948.44;;;19.33;100.00
75460;BME280;64039;53.060;9.342;2023-09-12T11:19:46;100935.16;;;19.39;100.00
75460;BME280;64039;53.060;9.342;2023-09-12T11:22:25;100928.19;;;19.33;100.00
75460;BME280;64039;53.060;9.342;2023-09-12T11:24:51;100924.50;;;19.47;100.00
75460;BME280;64039;53.060;9.342;2023-09-12T11:27:16;100929.69;;;19.53;100.00
75460;BME280;64039;53.060;9.342;2023-09-12T11:29:42;100927.88;;;19.57;100.00
75460;BME280;64039;53.060;9.342;2023-09-12T11:32:08;100941.94;;;19.57;100.00
75460;BME280;64039;53.060;9.342;2023-09-12T11:34:41;100949.75;;;19.65;100.00
75460;BME280;64039;53.060;9.342;2023-09-12T11:37:08;100950.78;;;19.55;100.00
75460;BME280;64039;53.060;9.342;2023-09-12T11:39:35;100957.81;;;19.56;100.00
75460;BME280;64039;53.060;9.342;2023-09-12T11:42:03;100958.88;;;19.41;100.00
75460;BME280;64039;53.060;9.342;2023-09-12T11:44:29;100962.59;;;19.26;100.00
75460;BME280;64039;53.060;9.342;2023-09-12T11:46:58;100959.91;;;19.30;100.00
75460;BME280;64039;53.060;9.342;2023-09-12T11:49:35;100957.31;;;19.27;100.00
75460;BME280;64039;53.060;9.342;2023-09-12T11:52:01;100955.44;;;19.36;100.00
75460;BME280;64039;53.060;9.342;2023-09-12T11:54:29;100949.41;;;19.26;100.00
75460;BME280;64039;53.060;9.342;2023-09-12T11:56:54;100957.19;;;19.37;100.00
75460;BME280;64039;53.060;9.342;2023-09-12T11:59:23;100956.13;;;19.50;100.00
75460;BME280;64039;53.060;9.342;2023-09-12T12:01:48;100968.50;;;19.43;100.00
75460;BME280;64039;53.060;9.342;2023-09-12T12:04:14;100981.84;;;19.34;100.00
75460;BME280;64039;53.060;9.342;2023-09-12T12:06:40;101003.69;;;19.45;100.00
75460;BME280;64039;53.060;9.342;2023-09-12T12:09:06;100995.06;;;19.31;100.00
75460;BME280;64039;53.060;9.342;2023-09-12T12:11:32;100997.78;;;19.26;100.00
75460;BME280;64039;53.060;9.342;2023-09-12T12:13:58;100998.78;;;19.17;100.00
75460;BME280;64039;53.060;9.342;2023-09-12T12:16:25;100991.66;;;19.23;100.00
75460;BME280;64039;53.060;9.342;2023-09-12T12:18:51;100980.28;;;19.19;100.00
75460;BME280;64039;53.060;9.342;2023-09-12T12:21:20;100969.72;;;19.19;100.00
75460;BME280;64039;53.060;9.342;2023-09-12T12:23:46;100966.97;;;19.28;100.00
75460;BME280;64039;53.060;9.342;2023-09-12T12:26:11;100967.72;;;19.38;100.00
75460;BME280;64039;53.060;9.342;2023-09-12T12:28:37;100965.81;;;19.50;100.00
75460;BME280;64039;53.060;9.342;2023-09-12T12:31:03;100957.84;;;19.53;100.00
75460;BME280;64039;53.060;9.342;2023-09-12T12:33:30;100956.72;;;19.69;100.00
75460;BME280;64039;53.060;9.342;2023-09-12T12:36:05;100951.38;;;19.74;100.00
75460;BME280;64039;53.060;9.342;2023-09-12T12:38:38;100941.34;;;19.99;100.00
75460;BME280;64039;53.060;9.342;2023-09-12T12:41:03;100955.63;;;19.86;100.00
75460;BME280;64039;53.060;9.342;2023-09-12T12:43:30;100955.63;;;19.86;100.00
75460;BME280;64039;53.060;9.342;2023-09-12T12:45:57;100945.81;;;19.94;100.00
75460;BME280;64039;53.060;9.342;2023-09-12T12:48:33;100939.63;;;19.97;100.00
75460;BME280;64039;53.060;9.342;2023-09-12T12:51:01;100940.53;;;19.95;100.00
75460;BME280;64039;53.060;9.342;2023-09-12T12:53:41;100954.16;;;20.24;100.00
75460;BME280;64039;53.060;9.342;2023-09-12T12:56:08;100954.78;;;20.38;100.00